sensor_id;sensor_type;location;lat;lon;timestamp;P1;durP1;ratioP1;P2;durP2;ratioP2
63217;SDS011;49314;48.278;16.378;2022-07-23T00:02:16;7.30;;;6.77;;
63217;SDS011;49314;48.278;16.378;2022-07-23T00:04:41;7.33;;;6.73;;
63217;SDS011;49314;48.278;16.378;2022-07-23T00:07:06;8.13;;;7.33;;
63217;SDS011;49314;48.278;16.378;2022-07-23T00:09:32;7.77;;;7.17;;
63217;SDS011;49314;48.278;16.378;2022-07-23T00:11:57;7.57;;;6.87;;
63217;SDS011;49314;48.278;16.378;2022-07-23T00:14:22;7.83;;;7.23;;
63217;SDS011;49314;48.278;16.378;2022-07-23T00:16:47;7.23;;;6.53;;
63217;SDS011;49314;48.278;16.378;2022-07-23T00:19:13;7.33;;;6.80;;
63217;SDS011;49314;48.278;16.378;2022-07-23T00:21:38;8.20;;;6.82;;
63217;SDS011;49314;48.278;16.378;2022-07-23T00:24:04;8.00;;;7.33;;
63217;SDS011;49314;48.278;16.378;2022-07-23T00:26:29;6.97;;;6.47;;
63217;SDS011;49314;48.278;16.378;2022-07-23T00:28:54;7.93;;;7.22;;
63217;SDS011;49314;48.278;16.378;2022-07-23T00:31:20;7.27;;;6.67;;
63217;SDS011;49314;48.278;16.378;2022-07-23T00:33:45;7.53;;;6.93;;
63217;SDS011;49314;48.278;16.378;2022-07-23T00:36:10;7.27;;;6.67;;
63217;SDS011;49314;48.278;16.378;2022-07-23T00:38:35;8.02;;;7.43;;
63217;SDS011;49314;48.278;16.378;2022-07-23T00:41:01;7.53;;;6.93;;
63217;SDS011;49314;48.278;16.378;2022-07-23T00:43:26;7.33;;;6.70;;
63217;SDS011;49314;48.278;16.378;2022-07-23T00:45:51;6.90;;;6.40;;
63217;SDS011;49314;48.278;16.378;2022-07-23T00:48:16;8.10;;;7.40;;
63217;SDS011;49314;48.278;16.378;2022-07-23T00:50:42;7.20;;;6.70;;
63217;SDS011;49314;48.278;16.378;2022-07-23T00:53:07;7.25;;;6.65;;
63217;SDS011;49314;48.278;16.378;2022-07-23T00:55:33;7.03;;;6.57;;
63217;SDS011;49314;48.278;16.378;2022-07-23T00:57:58;7.07;;;6.57;;
63217;SDS011;49314;48.278;16.378;2022-07-23T01:00:24;7.45;;;6.85;;
63217;SDS011;49314;48.278;16.378;2022-07-23T01:02:49;6.80;;;6.40;;
63217;SDS011;49314;48.278;16.378;2022-07-23T01:05:15;7.25;;;6.65;;
63217;SDS011;49314;48.278;16.378;2022-07-23T01:07:40;7.05;;;6.55;;
63217;SDS011;49314;48.278;16.378;2022-07-23T01:10:06;7.22;;;6.53;;
63217;SDS011;49314;48.278;16.378;2022-07-23T01:12:51;7.72;;;7.22;;
63217;SDS011;49314;48.278;16.378;2022-07-23T01:15:16;7.77;;;7.17;;
63217;SDS011;49314;48.278;16.378;2022-07-23T01:17:42;7.70;;;7.10;;
63217;SDS011;49314;48.278;16.378;2022-07-23T01:20:07;7.53;;;6.87;;
63217;SDS011;49314;48.278;16.378;2022-07-23T01:22:32;7.35;;;6.85;;
63217;SDS011;49314;48.278;16.378;2022-07-23T01:24:57;8.10;;;7.47;;
63217;SDS011;49314;48.278;16.378;2022-07-23T01:27:23;7.80;;;7.03;;
63217;SDS011;49314;48.278;16.378;2022-07-23T01:29:48;7.73;;;7.17;;
63217;SDS011;49314;48.278;16.378;2022-07-23T01:32:13;7.47;;;6.93;;
63217;SDS011;49314;48.278;16.378;2022-07-23T01:34:38;7.97;;;7.37;;
63217;SDS011;49314;48.278;16.378;2022-07-23T01:37:05;7.35;;;6.95;;
63217;SDS011;49314;48.278;16.378;2022-07-23T01:39:30;7.10;;;6.60;;
63217;SDS011;49314;48.278;16.378;2022-07-23T01:41:56;7.90;;;7.30;;
63217;SDS011;49314;48.278;16.378;2022-07-23T01:44:21;7.33;;;6.70;;
63217;SDS011;49314;48.278;16.378;2022-07-23T01:46:46;7.10;;;6.60;;
63217;SDS011;49314;48.278;16.378;2022-07-23T01:49:11;7.00;;;6.50;;
63217;SDS011;49314;48.278;16.378;2022-07-23T01:51:37;7.73;;;7.23;;
63217;SDS011;49314;48.278;16.378;2022-07-23T01:54:02;7.33;;;6.63;;
63217;SDS011;49314;48.278;16.378;2022-07-23T01:56:27;7.20;;;6.63;;
63217;SDS011;49314;48.278;16.378;2022-07-23T01:58:52;7.10;;;6.60;;
63217;SDS011;49314;48.278;16.378;2022-07-23T02:01:17;7.10;;;6.60;;
63217;SDS011;49314;48.278;16.378;2022-07-23T02:03:43;7.10;;;6.50;;
63217;SDS011;49314;48.278;16.378;2022-07-23T02:06:08;7.33;;;6.83;;
63217;SDS011;49314;48.278;16.378;2022-07-23T02:08:33;7.28;;;6.78;;
63217;SDS011;49314;48.278;16.378;2022-07-23T02:10:59;7.80;;;7.10;;
63217;SDS011;49314;48.278;16.378;2022-07-23T02:13:24;6.97;;;6.57;;
63217;SDS011;49314;48.278;16.378;2022-07-23T02:15:49;6.87;;;6.27;;
63217;SDS011;49314;48.278;16.378;2022-07-23T02:18:14;7.20;;;6.70;;
63217;SDS011;49314;48.278;16.378;2022-07-23T02:20:40;7.53;;;7.00;;
63217;SDS011;49314;48.278;16.378;2022-07-23T02:23:05;7.13;;;6.60;;
63217;SDS011;49314;48.278;16.378;2022-07-23T02:25:31;7.63;;;7.13;;
63217;SDS011;49314;48.278;16.378;2022-07-23T02:27:56;7.68;;;7.07;;
63217;SDS011;49314;48.278;16.378;2022-07-23T02:30:22;7.30;;;6.80;;
63217;SDS011;49314;48.278;16.378;2022-07-23T02:32:47;7.33;;;6.83;;
63217;SDS011;49314;48.278;16.378;2022-07-23T02:35:12;6.63;;;6.23;;
63217;SDS011;49314;48.278;16.378;2022-07-23T02:37:37;7.43;;;6.93;;
63217;SDS011;49314;48.278;16.378;2022-07-23T02:40:02;7.47;;;6.93;;
63217;SDS011;49314;48.278;16.378;2022-07-23T02:42:28;7.15;;;6.65;;
63217;SDS011;49314;48.278;16.378;2022-07-23T02:44:53;7.00;;;6.50;;
63217;SDS011;49314;48.278;16.378;2022-07-23T02:47:18;6.90;;;6.40;;
63217;SDS011;49314;48.278;16.378;2022-07-23T02:49:43;7.30;;;6.80;;
63217;SDS011;49314;48.278;16.378;2022-07-23T02:52:09;7.33;;;6.83;;
63217;SDS011;49314;48.278;16.378;2022-07-23T02:54:35;8.02;;;7.47;;
63217;SDS011;49314;48.278;16.378;2022-07-23T02:57:00;7.90;;;7.20;;
63217;SDS011;49314;48.278;16.378;2022-07-23T02:59:26;8.97;;;7.43;;
63217;SDS011;49314;48.278;16.378;2022-07-23T03:01:51;7.53;;;7.03;;
63217;SDS011;49314;48.278;16.378;2022-07-23T03:04:16;7.50;;;7.00;;
63217;SDS011;49314;48.278;16.378;2022-07-23T03:06:41;7.53;;;7.03;;
63217;SDS011;49314;48.278;16.378;2022-07-23T03:09:06;7.73;;;7.13;;
63217;SDS011;49314;48.278;16.378;2022-07-23T03:11:32;7.50;;;7.00;;
63217;SDS011;49314;48.278;16.378;2022-07-23T03:13:57;8.50;;;7.90;;
63217;SDS011;49314;48.278;16.378;2022-07-23T03:16:22;8.23;;;7.73;;
63217;SDS011;49314;48.278;16.378;2022-07-23T03:18:47;7.28;;;6.78;;
63217;SDS011;49314;48.278;16.378;2022-07-23T03:21:13;8.75;;;7.10;;
63217;SDS011;49314;48.278;16.378;2022-07-23T03:23:38;8.23;;;7.63;;
63217;SDS011;49314;48.278;16.378;2022-07-23T03:26:03;7.63;;;6.97;;
63217;SDS011;49314;48.278;16.378;2022-07-23T03:28:29;8.77;;;7.97;;
63217;SDS011;49314;48.278;16.378;2022-07-23T03:30:54;8.50;;;7.83;;
63217;SDS011;49314;48.278;16.378;2022-07-23T03:33:20;8.40;;;7.70;;
63217;SDS011;49314;48.278;16.378;2022-07-23T03:35:46;8.73;;;7.85;;
63217;SDS011;49314;48.278;16.378;2022-07-23T03:38:11;8.70;;;8.00;;
63217;SDS011;49314;48.278;16.378;2022-07-23T03:40:36;8.90;;;8.30;;
63217;SDS011;49314;48.278;16.378;2022-07-23T03:43:02;9.43;;;8.63;;
63217;SDS011;49314;48.278;16.378;2022-07-23T03:45:27;9.13;;;8.32;;
63217;SDS011;49314;48.278;16.378;2022-07-23T03:47:53;10.65;;;9.85;;
63217;SDS011;49314;48.278;16.378;2022-07-23T03:50:18;8.90;;;8.05;;
63217;SDS011;49314;48.278;16.378;2022-07-23T03:52:43;9.15;;;8.45;;
63217;SDS011;49314;48.278;16.378;2022-07-23T03:55:09;10.23;;;9.53;;
63217;SDS011;49314;48.278;16.378;2022-07-23T03:57:34;9.03;;;8.37;;
63217;SDS011;49314;48.278;16.378;2022-07-23T03:59:59;10.35;;;9.55;;
63217;SDS011;49314;48.278;16.378;2022-07-23T04:02:25;9.43;;;8.73;;
63217;SDS011;49314;48.278;16.378;2022-07-23T04:04:50;10.07;;;9.27;;
63217;SDS011;49314;48.278;16.378;2022-07-23T04:07:15;10.40;;;9.60;;
63217;SDS011;49314;48.278;16.378;2022-07-23T04:09:42;9.55;;;8.85;;
63217;SDS011;49314;48.278;16.378;2022-07-23T04:12:07;9.13;;;8.48;;
63217;SDS011;49314;48.278;16.378;2022-07-23T04:14:33;9.88;;;8.63;;
63217;SDS011;49314;48.278;16.378;2022-07-23T04:16:58;10.03;;;9.20;;
63217;SDS011;49314;48.278;16.378;2022-07-23T04:19:24;10.98;;;10.02;;
63217;SDS011;49314;48.278;16.378;2022-07-23T04:21:49;10.27;;;9.38;;
63217;SDS011;49314;48.278;16.378;2022-07-23T04:24:15;10.07;;;9.35;;
63217;SDS011;49314;48.278;16.378;2022-07-23T04:26:40;10.23;;;9.43;;
63217;SDS011;49314;48.278;16.378;2022-07-23T04:29:05;10.03;;;9.23;;
63217;SDS011;49314;48.278;16.378;2022-07-23T04:31:30;9.37;;;8.77;;
63217;SDS011;49314;48.278;16.378;2022-07-23T04:33:56;9.33;;;8.63;;
63217;SDS011;49314;48.278;16.378;2022-07-23T04:36:21;10.17;;;9.30;;
63217;SDS011;49314;48.278;16.378;2022-07-23T04:38:46;10.70;;;9.80;;
63217;SDS011;49314;48.278;16.378;2022-07-23T04:41:11;10.03;;;9.33;;
63217;SDS011;49314;48.278;16.378;2022-07-23T04:43:36;10.03;;;9.27;;
63217;SDS011;49314;48.278;16.378;2022-07-23T04:46:02;11.07;;;9.33;;
63217;SDS011;49314;48.278;16.378;2022-07-23T04:48:27;9.93;;;9.23;;
63217;SDS011;49314;48.278;16.378;2022-07-23T04:50:52;9.40;;;8.50;;
63217;SDS011;49314;48.278;16.378;2022-07-23T04:53:17;9.07;;;8.37;;
63217;SDS011;49314;48.278;16.378;2022-07-23T04:55:44;10.20;;;9.40;;
63217;SDS011;49314;48.278;16.378;2022-07-23T04:58:09;10.53;;;9.57;;
63217;SDS011;49314;48.278;16.378;2022-07-23T05:00:35;11.40;;;9.67;;
63217;SDS011;49314;48.278;16.378;2022-07-23T05:03:00;10.07;;;8.93;;
63217;SDS011;49314;48.278;16.378;2022-07-23T05:05:26;10.38;;;9.35;;
63217;SDS011;49314;48.278;16.378;2022-07-23T05:07:51;10.30;;;9.27;;
63217;SDS011;49314;48.278;16.378;2022-07-23T05:10:16;9.40;;;8.30;;
63217;SDS011;49314;48.278;16.378;2022-07-23T05:12:42;9.60;;;8.95;;
63217;SDS011;49314;48.278;16.378;2022-07-23T05:15:07;9.57;;;8.93;;
63217;SDS011;49314;48.278;16.378;2022-07-23T05:17:32;10.77;;;9.05;;
63217;SDS011;49314;48.278;16.378;2022-07-23T05:19:57;17.17;;;9.83;;
63217;SDS011;49314;48.278;16.378;2022-07-23T05:22:23;11.20;;;9.20;;
63217;SDS011;49314;48.278;16.378;2022-07-23T05:24:48;9.93;;;9.07;;
63217;SDS011;49314;48.278;16.378;2022-07-23T05:27:13;10.57;;;9.53;;
63217;SDS011;49314;48.278;16.378;2022-07-23T05:29:38;10.37;;;9.33;;
63217;SDS011;49314;48.278;16.378;2022-07-23T05:32:03;10.20;;;9.20;;
63217;SDS011;49314;48.278;16.378;2022-07-23T05:34:29;9.15;;;8.52;;
63217;SDS011;49314;48.278;16.378;2022-07-23T05:36:54;9.37;;;8.47;;
63217;SDS011;49314;48.278;16.378;2022-07-23T05:39:19;9.63;;;8.77;;
63217;SDS011;49314;48.278;16.378;2022-07-23T05:41:44;10.07;;;9.17;;
63217;SDS011;49314;48.278;16.378;2022-07-23T05:44:10;10.20;;;9.17;;
63217;SDS011;49314;48.278;16.378;2022-07-23T05:46:35;9.23;;;8.50;;
63217;SDS011;49314;48.278;16.378;2022-07-23T05:49:00;9.90;;;9.27;;
63217;SDS011;49314;48.278;16.378;2022-07-23T05:51:25;9.53;;;8.83;;
63217;SDS011;49314;48.278;16.378;2022-07-23T05:53:51;9.50;;;8.57;;
63217;SDS011;49314;48.278;16.378;2022-07-23T05:56:17;8.88;;;8.13;;
63217;SDS011;49314;48.278;16.378;2022-07-23T05:58:42;9.55;;;8.63;;
63217;SDS011;49314;48.278;16.378;2022-07-23T06:01:08;10.52;;;9.63;;
63217;SDS011;49314;48.278;16.378;2022-07-23T06:03:33;8.90;;;8.30;;
63217;SDS011;49314;48.278;16.378;2022-07-23T06:05:58;9.57;;;8.87;;
63217;SDS011;49314;48.278;16.378;2022-07-23T06:08:23;9.03;;;8.33;;
63217;SDS011;49314;48.278;16.378;2022-07-23T06:10:49;10.37;;;9.47;;
63217;SDS011;49314;48.278;16.378;2022-07-23T06:13:15;8.87;;;8.23;;
63217;SDS011;49314;48.278;16.378;2022-07-23T06:15:42;9.43;;;8.70;;
63217;SDS011;49314;48.278;16.378;2022-07-23T06:18:07;9.07;;;8.43;;
63217;SDS011;49314;48.278;16.378;2022-07-23T06:20:32;8.47;;;7.87;;
63217;SDS011;49314;48.278;16.378;2022-07-23T06:22:57;9.07;;;8.37;;
63217;SDS011;49314;48.278;16.378;2022-07-23T06:25:23;8.80;;;8.10;;
63217;SDS011;49314;48.278;16.378;2022-07-23T06:27:48;9.80;;;9.00;;
63217;SDS011;49314;48.278;16.378;2022-07-23T06:30:14;9.60;;;8.80;;
63217;SDS011;49314;48.278;16.378;2022-07-23T06:32:43;8.48;;;7.88;;
63217;SDS011;49314;48.278;16.378;2022-07-23T06:35:09;9.63;;;8.30;;
63217;SDS011;49314;48.278;16.378;2022-07-23T06:37:34;13.17;;;8.43;;
63217;SDS011;49314;48.278;16.378;2022-07-23T06:39:59;8.43;;;7.47;;
63217;SDS011;49314;48.278;16.378;2022-07-23T06:42:24;8.70;;;7.97;;
63217;SDS011;49314;48.278;16.378;2022-07-23T06:44:50;9.67;;;8.57;;
63217;SDS011;49314;48.278;16.378;2022-07-23T06:47:15;9.50;;;8.80;;
63217;SDS011;49314;48.278;16.378;2022-07-23T06:49:40;7.73;;;7.23;;
63217;SDS011;49314;48.278;16.378;2022-07-23T06:52:06;9.63;;;8.93;;
63217;SDS011;49314;48.278;16.378;2022-07-23T06:54:31;11.52;;;8.75;;
63217;SDS011;49314;48.278;16.378;2022-07-23T06:56:56;9.90;;;8.77;;
63217;SDS011;49314;48.278;16.378;2022-07-23T06:59:21;9.70;;;8.80;;
63217;SDS011;49314;48.278;16.378;2022-07-23T07:01:47;8.53;;;7.83;;
63217;SDS011;49314;48.278;16.378;2022-07-23T07:04:12;9.02;;;8.20;;
63217;SDS011;49314;48.278;16.378;2022-07-23T07:06:37;9.10;;;7.67;;
63217;SDS011;49314;48.278;16.378;2022-07-23T07:09:02;8.63;;;7.93;;
63217;SDS011;49314;48.278;16.378;2022-07-23T07:11:28;10.33;;;8.37;;
63217;SDS011;49314;48.278;16.378;2022-07-23T07:13:53;8.13;;;7.53;;
63217;SDS011;49314;48.278;16.378;2022-07-23T07:16:18;8.43;;;7.83;;
63217;SDS011;49314;48.278;16.378;2022-07-23T07:18:43;8.48;;;7.80;;
63217;SDS011;49314;48.278;16.378;2022-07-23T07:21:09;8.43;;;7.63;;
63217;SDS011;49314;48.278;16.378;2022-07-23T07:23:34;9.03;;;8.27;;
63217;SDS011;49314;48.278;16.378;2022-07-23T07:25:59;8.30;;;7.60;;
63217;SDS011;49314;48.278;16.378;2022-07-23T07:28:25;8.50;;;7.80;;
63217;SDS011;49314;48.278;16.378;2022-07-23T07:30:50;8.23;;;7.53;;
63217;SDS011;49314;48.278;16.378;2022-07-23T07:33:15;7.93;;;7.43;;
63217;SDS011;49314;48.278;16.378;2022-07-23T07:35:41;7.93;;;7.32;;
63217;SDS011;49314;48.278;16.378;2022-07-23T07:38:06;8.73;;;7.97;;
63217;SDS011;49314;48.278;16.378;2022-07-23T07:40:31;9.07;;;8.37;;
63217;SDS011;49314;48.278;16.378;2022-07-23T07:42:56;8.17;;;7.57;;
63217;SDS011;49314;48.278;16.378;2022-07-23T07:45:22;8.80;;;8.00;;
63217;SDS011;49314;48.278;16.378;2022-07-23T07:47:48;8.32;;;7.55;;
63217;SDS011;49314;48.278;16.378;2022-07-23T07:50:13;10.13;;;7.50;;
63217;SDS011;49314;48.278;16.378;2022-07-23T07:52:39;8.82;;;7.90;;
63217;SDS011;49314;48.278;16.378;2022-07-23T07:55:04;20.80;;;8.10;;
63217;SDS011;49314;48.278;16.378;2022-07-23T07:57:30;8.55;;;7.70;;
63217;SDS011;49314;48.278;16.378;2022-07-23T07:59:55;8.20;;;7.43;;
63217;SDS011;49314;48.278;16.378;2022-07-23T08:02:20;9.35;;;8.48;;
63217;SDS011;49314;48.278;16.378;2022-07-23T08:04:46;7.73;;;7.00;;
63217;SDS011;49314;48.278;16.378;2022-07-23T08:07:11;11.48;;;7.82;;
63217;SDS011;49314;48.278;16.378;2022-07-23T08:09:36;7.87;;;7.20;;
63217;SDS011;49314;48.278;16.378;2022-07-23T08:12:02;7.77;;;7.17;;
63217;SDS011;49314;48.278;16.378;2022-07-23T08:14:27;7.83;;;7.30;;
63217;SDS011;49314;48.278;16.378;2022-07-23T08:16:52;7.77;;;7.03;;
63217;SDS011;49314;48.278;16.378;2022-07-23T08:19:17;7.95;;;7.28;;
63217;SDS011;49314;48.278;16.378;2022-07-23T08:21:43;7.47;;;6.87;;
63217;SDS011;49314;48.278;16.378;2022-07-23T08:24:08;7.13;;;6.63;;
63217;SDS011;49314;48.278;16.378;2022-07-23T08:26:33;18.10;;;9.27;;
63217;SDS011;49314;48.278;16.378;2022-07-23T08:28:58;10.40;;;7.63;;
63217;SDS011;49314;48.278;16.378;2022-07-23T08:31:23;18.63;;;8.83;;
63217;SDS011;49314;48.278;16.378;2022-07-23T08:33:49;16.33;;;8.57;;
63217;SDS011;49314;48.278;16.378;2022-07-23T08:36:14;16.53;;;8.97;;
63217;SDS011;49314;48.278;16.378;2022-07-23T08:38:39;18.52;;;9.40;;
63217;SDS011;49314;48.278;16.378;2022-07-23T08:41:04;16.92;;;9.32;;
63217;SDS011;49314;48.278;16.378;2022-07-23T08:43:32;20.15;;;9.93;;
63217;SDS011;49314;48.278;16.378;2022-07-23T08:46:00;12.65;;;8.85;;
63217;SDS011;49314;48.278;16.378;2022-07-23T08:48:26;15.43;;;8.18;;
63217;SDS011;49314;48.278;16.378;2022-07-23T08:50:52;16.15;;;8.77;;
63217;SDS011;49314;48.278;16.378;2022-07-23T08:53:19;17.98;;;9.35;;
63217;SDS011;49314;48.278;16.378;2022-07-23T08:55:45;15.18;;;9.20;;
63217;SDS011;49314;48.278;16.378;2022-07-23T08:58:10;12.32;;;8.57;;
63217;SDS011;49314;48.278;16.378;2022-07-23T09:00:35;25.53;;;10.30;;
63217;SDS011;49314;48.278;16.378;2022-07-23T09:03:01;35.90;;;12.27;;
63217;SDS011;49314;48.278;16.378;2022-07-23T09:05:26;57.47;;;13.82;;
63217;SDS011;49314;48.278;16.378;2022-07-23T09:08:07;15.60;;;9.03;;
63217;SDS011;49314;48.278;16.378;2022-07-23T09:13:26;25.38;;;9.63;;
63217;SDS011;49314;48.278;16.378;2022-07-23T09:15:52;114.97;;;21.63;;
63217;SDS011;49314;48.278;16.378;2022-07-23T09:18:17;27.08;;;9.30;;
63217;SDS011;49314;48.278;16.378;2022-07-23T09:20:45;13.67;;;8.57;;
63217;SDS011;49314;48.278;16.378;2022-07-23T09:23:11;56.72;;;12.63;;
63217;SDS011;49314;48.278;16.378;2022-07-23T09:25:36;24.63;;;9.30;;
63217;SDS011;49314;48.278;16.378;2022-07-23T09:28:01;49.90;;;10.97;;
63217;SDS011;49314;48.278;16.378;2022-07-23T09:30:32;25.13;;;8.48;;
63217;SDS011;49314;48.278;16.378;2022-07-23T09:33:09;30.42;;;10.20;;
63217;SDS011;49314;48.278;16.378;2022-07-23T09:35:45;33.17;;;10.88;;
63217;SDS011;49314;48.278;16.378;2022-07-23T09:38:11;35.00;;;10.73;;
63217;SDS011;49314;48.278;16.378;2022-07-23T09:40:36;25.75;;;10.13;;
63217;SDS011;49314;48.278;16.378;2022-07-23T09:43:01;26.90;;;9.57;;
63217;SDS011;49314;48.278;16.378;2022-07-23T09:45:26;20.93;;;10.73;;
63217;SDS011;49314;48.278;16.378;2022-07-23T09:47:55;26.50;;;9.27;;
63217;SDS011;49314;48.278;16.378;2022-07-23T09:50:34;22.52;;;8.65;;
63217;SDS011;49314;48.278;16.378;2022-07-23T09:52:59;21.57;;;10.97;;
63217;SDS011;49314;48.278;16.378;2022-07-23T09:55:30;18.23;;;10.17;;
63217;SDS011;49314;48.278;16.378;2022-07-23T09:58:00;25.50;;;10.80;;
63217;SDS011;49314;48.278;16.378;2022-07-23T10:00:25;23.15;;;10.98;;
63217;SDS011;49314;48.278;16.378;2022-07-23T10:02:50;29.05;;;10.85;;
63217;SDS011;49314;48.278;16.378;2022-07-23T10:05:16;16.35;;;9.35;;
63217;SDS011;49314;48.278;16.378;2022-07-23T10:07:42;14.77;;;9.32;;
63217;SDS011;49314;48.278;16.378;2022-07-23T10:10:07;13.48;;;9.43;;
63217;SDS011;49314;48.278;16.378;2022-07-23T10:12:33;20.77;;;9.25;;
63217;SDS011;49314;48.278;16.378;2022-07-23T10:15:13;16.63;;;10.00;;
63217;SDS011;49314;48.278;16.378;2022-07-23T10:17:39;16.20;;;9.63;;
63217;SDS011;49314;48.278;16.378;2022-07-23T10:20:04;17.23;;;9.63;;
63217;SDS011;49314;48.278;16.378;2022-07-23T10:22:33;14.43;;;8.43;;
63217;SDS011;49314;48.278;16.378;2022-07-23T10:29:58;13.63;;;8.27;;
63217;SDS011;49314;48.278;16.378;2022-07-23T10:37:43;12.63;;;7.90;;
63217;SDS011;49314;48.278;16.378;2022-07-23T10:40:20;9.80;;;8.02;;
63217;SDS011;49314;48.278;16.378;2022-07-23T10:42:47;10.95;;;8.32;;
63217;SDS011;49314;48.278;16.378;2022-07-23T10:45:23;10.48;;;7.70;;
63217;SDS011;49314;48.278;16.378;2022-07-23T10:47:48;11.65;;;8.23;;
63217;SDS011;49314;48.278;16.378;2022-07-23T10:50:31;10.48;;;7.85;;
63217;SDS011;49314;48.278;16.378;2022-07-23T10:57:59;13.47;;;7.63;;
63217;SDS011;49314;48.278;16.378;2022-07-23T11:00:27;14.57;;;7.85;;
63217;SDS011;49314;48.278;16.378;2022-07-23T11:03:00;11.00;;;7.55;;
63217;SDS011;49314;48.278;16.378;2022-07-23T11:05:26;14.65;;;7.75;;
63217;SDS011;49314;48.278;16.378;2022-07-23T11:10:36;21.43;;;9.67;;
63217;SDS011;49314;48.278;16.378;2022-07-23T11:15:26;13.13;;;7.80;;
63217;SDS011;49314;48.278;16.378;2022-07-23T11:20:18;11.10;;;7.27;;
63217;SDS011;49314;48.278;16.378;2022-07-23T11:25:12;22.03;;;9.63;;
63217;SDS011;49314;48.278;16.378;2022-07-23T11:30:03;12.97;;;7.50;;
63217;SDS011;49314;48.278;16.378;2022-07-23T11:32:29;17.50;;;8.40;;
63217;SDS011;49314;48.278;16.378;2022-07-23T11:34:55;12.63;;;7.50;;
63217;SDS011;49314;48.278;16.378;2022-07-23T11:37:27;9.20;;;7.95;;
63217;SDS011;49314;48.278;16.378;2022-07-23T11:42:18;12.52;;;7.80;;
63217;SDS011;49314;48.278;16.378;2022-07-23T11:44:46;10.30;;;8.07;;
63217;SDS011;49314;48.278;16.378;2022-07-23T11:47:11;15.25;;;8.40;;
63217;SDS011;49314;48.278;16.378;2022-07-23T11:49:37;9.13;;;7.38;;
63217;SDS011;49314;48.278;16.378;2022-07-23T11:52:06;11.93;;;7.53;;
63217;SDS011;49314;48.278;16.378;2022-07-23T11:54:32;8.55;;;6.93;;
63217;SDS011;49314;48.278;16.378;2022-07-23T11:56:57;13.95;;;8.68;;
63217;SDS011;49314;48.278;16.378;2022-07-23T11:59:24;14.52;;;7.90;;
63217;SDS011;49314;48.278;16.378;2022-07-23T12:01:59;11.75;;;7.63;;
63217;SDS011;49314;48.278;16.378;2022-07-23T12:04:44;10.05;;;7.55;;
63217;SDS011;49314;48.278;16.378;2022-07-23T12:12:42;9.40;;;8.10;;
63217;SDS011;49314;48.278;16.378;2022-07-23T12:15:11;10.02;;;8.32;;
63217;SDS011;49314;48.278;16.378;2022-07-23T12:17:37;11.73;;;7.55;;
63217;SDS011;49314;48.278;16.378;2022-07-23T12:20:04;10.40;;;7.40;;
63217;SDS011;49314;48.278;16.378;2022-07-23T12:22:34;11.13;;;7.82;;
63217;SDS011;49314;48.278;16.378;2022-07-23T12:25:00;10.07;;;7.50;;
63217;SDS011;49314;48.278;16.378;2022-07-23T12:27:26;11.77;;;7.70;;
63217;SDS011;49314;48.278;16.378;2022-07-23T12:29:52;11.88;;;8.07;;
63217;SDS011;49314;48.278;16.378;2022-07-23T12:32:27;14.43;;;7.97;;
63217;SDS011;49314;48.278;16.378;2022-07-23T12:35:05;8.52;;;6.97;;
63217;SDS011;49314;48.278;16.378;2022-07-23T12:39:56;9.03;;;7.87;;
63217;SDS011;49314;48.278;16.378;2022-07-23T12:42:21;7.57;;;6.80;;
63217;SDS011;49314;48.278;16.378;2022-07-23T12:45:08;10.00;;;7.28;;
63217;SDS011;49314;48.278;16.378;2022-07-23T12:55:35;8.77;;;7.85;;
63217;SDS011;49314;48.278;16.378;2022-07-23T12:58:07;9.70;;;7.30;;
63217;SDS011;49314;48.278;16.378;2022-07-23T13:00:48;9.57;;;7.28;;
63217;SDS011;49314;48.278;16.378;2022-07-23T13:03:27;10.30;;;6.60;;
63217;SDS011;49314;48.278;16.378;2022-07-23T13:05:53;12.60;;;8.43;;
63217;SDS011;49314;48.278;16.378;2022-07-23T13:08:18;8.48;;;7.30;;
63217;SDS011;49314;48.278;16.378;2022-07-23T13:10:44;7.60;;;6.90;;
63217;SDS011;49314;48.278;16.378;2022-07-23T13:13:13;8.63;;;6.80;;
63217;SDS011;49314;48.278;16.378;2022-07-23T13:15:38;8.33;;;6.90;;
63217;SDS011;49314;48.278;16.378;2022-07-23T13:18:03;8.93;;;8.10;;
63217;SDS011;49314;48.278;16.378;2022-07-23T13:20:28;9.70;;;7.30;;
63217;SDS011;49314;48.278;16.378;2022-07-23T13:22:56;8.55;;;7.75;;
63217;SDS011;49314;48.278;16.378;2022-07-23T13:25:21;8.75;;;6.57;;
63217;SDS011;49314;48.278;16.378;2022-07-23T13:27:46;6.73;;;6.03;;
63217;SDS011;49314;48.278;16.378;2022-07-23T13:30:12;7.63;;;6.90;;
63217;SDS011;49314;48.278;16.378;2022-07-23T13:32:37;7.00;;;6.30;;
63217;SDS011;49314;48.278;16.378;2022-07-23T13:35:03;8.87;;;6.40;;
63217;SDS011;49314;48.278;16.378;2022-07-23T13:37:28;10.90;;;7.57;;
63217;SDS011;49314;48.278;16.378;2022-07-23T13:39:53;16.10;;;7.22;;
63217;SDS011;49314;48.278;16.378;2022-07-23T13:42:18;14.43;;;6.90;;
63217;SDS011;49314;48.278;16.378;2022-07-23T13:44:44;12.57;;;7.33;;
63217;SDS011;49314;48.278;16.378;2022-07-23T13:47:09;9.77;;;6.70;;
63217;SDS011;49314;48.278;16.378;2022-07-23T13:49:34;11.30;;;7.20;;
63217;SDS011;49314;48.278;16.378;2022-07-23T13:51:59;7.90;;;6.90;;
63217;SDS011;49314;48.278;16.378;2022-07-23T13:54:25;8.53;;;7.53;;
63217;SDS011;49314;48.278;16.378;2022-07-23T13:56:50;9.25;;;6.25;;
63217;SDS011;49314;48.278;16.378;2022-07-23T13:59:16;11.07;;;7.18;;
63217;SDS011;49314;48.278;16.378;2022-07-23T14:01:41;8.93;;;6.43;;
63217;SDS011;49314;48.278;16.378;2022-07-23T14:04:07;8.47;;;6.37;;
63217;SDS011;49314;48.278;16.378;2022-07-23T14:06:32;9.47;;;7.33;;
63217;SDS011;49314;48.278;16.378;2022-07-23T14:08:57;9.17;;;6.10;;
63217;SDS011;49314;48.278;16.378;2022-07-23T14:11:22;9.07;;;6.47;;
63217;SDS011;49314;48.278;16.378;2022-07-23T14:13:47;8.60;;;6.60;;
63217;SDS011;49314;48.278;16.378;2022-07-23T14:16:13;10.70;;;7.53;;
63217;SDS011;49314;48.278;16.378;2022-07-23T14:18:38;14.73;;;6.87;;
63217;SDS011;49314;48.278;16.378;2022-07-23T14:21:03;10.97;;;7.43;;
63217;SDS011;49314;48.278;16.378;2022-07-23T14:23:28;7.90;;;7.03;;
63217;SDS011;49314;48.278;16.378;2022-07-23T14:25:54;10.87;;;7.53;;
63217;SDS011;49314;48.278;16.378;2022-07-23T14:28:19;11.80;;;8.53;;
63217;SDS011;49314;48.278;16.378;2022-07-23T14:30:44;14.87;;;9.10;;
63217;SDS011;49314;48.278;16.378;2022-07-23T14:33:09;8.70;;;7.37;;
63217;SDS011;49314;48.278;16.378;2022-07-23T14:35:34;12.03;;;7.87;;
63217;SDS011;49314;48.278;16.378;2022-07-23T14:38:00;9.97;;;8.00;;
63217;SDS011;49314;48.278;16.378;2022-07-23T14:40:25;12.20;;;8.67;;
63217;SDS011;49314;48.278;16.378;2022-07-23T14:42:50;15.15;;;9.38;;
63217;SDS011;49314;48.278;16.378;2022-07-23T14:45:16;8.23;;;7.40;;
63217;SDS011;49314;48.278;16.378;2022-07-23T14:47:41;10.90;;;8.30;;
63217;SDS011;49314;48.278;16.378;2022-07-23T14:50:06;13.13;;;9.30;;
63217;SDS011;49314;48.278;16.378;2022-07-23T14:52:32;11.85;;;8.73;;
63217;SDS011;49314;48.278;16.378;2022-07-23T14:54:57;10.03;;;8.57;;
63217;SDS011;49314;48.278;16.378;2022-07-23T14:57:22;9.60;;;8.57;;
63217;SDS011;49314;48.278;16.378;2022-07-23T14:59:47;11.07;;;8.73;;
63217;SDS011;49314;48.278;16.378;2022-07-23T15:02:12;12.50;;;9.30;;
63217;SDS011;49314;48.278;16.378;2022-07-23T15:04:38;11.10;;;9.87;;
63217;SDS011;49314;48.278;16.378;2022-07-23T15:07:03;12.33;;;10.40;;
63217;SDS011;49314;48.278;16.378;2022-07-23T15:09:28;10.77;;;9.77;;
63217;SDS011;49314;48.278;16.378;2022-07-23T15:11:54;12.40;;;10.23;;